Terminal Aerodrome Forecast
Issued by NWS

Home | Current Version | Previous Version | Text Only | Print | Product List | Glossary On
Versions: 1 2 3 4 5 6 7 8 9 10 11 12 13 14 15 16 17 18 19 20 21 22 23 24 25 26 27 28 29 30 31
000
FTUS46 KOTX 161730
TAFCOE
TAF
KCOE 161730Z 1618/1718 18011KT P6SM FEW120 FEW200
     FM162000 20007KT P6SM FEW200
     FM170500 16006KT P6SM BKN200
     FM171500 10009KT P6SM SCT150 BKN200 WS020/24030KT=

USA.gov is the U.S. government's official web portal to all federal, state and local government web resources and services.